Terminal Aerodrome Forecast
Issued by NWS Corpus Christi, TX

Home | Current Version | Previous Version | Text Only | Print | Product List | Glossary On
Versions: 1 2 3 4 5 6 7 8 9 10 11 12 13
000
FTUS44 KCRP 191100
TAFCRP
TAF
KCRP 191138Z 1912/2012 VRB04KT P6SM FEW015 SCT150
     FM191500 13012KT P6SM VCSH SCT025 BKN250
     FM200000 13005KT P6SM BKN035=

USA.gov is the U.S. government's official web portal to all federal, state and local government web resources and services.